Time;durP1;ratioP1;P1;durP2;ratioP2;P2;SDS_P1;SDS_P2;PMS_P1;PMS_P2;Temp;Humidity;BMP_temperature;BMP_pressure;BME280_temperature;BME280_humidity;BME280_pressure;Samples;Min_cycle;Max_cycle;Signal;HPM_P1;HPM_P2
2024/02/28 00:03:33;;;;;;;11.57;3.92;;;14.70;99.90;;;;;;10432483;28;20479;-59
2024/02/28 00:08:35;;;;;;;;;;;14.80;99.90;;;;;;10428077;28;20053;-63
2024/02/28 00:13:38;;;;;;;6.90;1.65;;;14.90;99.90;;;;;;10433709;28;20561;-63
2024/02/28 00:18:40;;;;;;;7.20;2.15;;;14.60;99.90;;;;;;10432012;28;20040;-61
2024/02/28 00:23:42;;;;;;;6.27;3.20;;;14.50;99.90;;;;;;10429002;28;20065;-60
2024/02/28 00:28:46;;;;;;;10.90;2.47;;;14.20;99.90;;;;;;10430438;28;20071;-60
2024/02/28 00:33:48;;;;;;;5.55;2.78;;;14.50;99.90;;;;;;10439068;28;20539;-60
2024/02/28 00:38:50;;;;;;;6.28;2.30;;;14.70;99.90;;;;;;10443336;28;20036;-62
2024/02/28 00:43:53;;;;;;;8.43;2.50;;;14.70;99.90;;;;;;10433059;28;20060;-61
2024/02/28 00:48:55;;;;;;;5.35;2.20;;;14.90;99.90;;;;;;10439952;28;20099;-61
2024/02/28 00:53:57;;;;;;;9.73;3.13;;;14.70;99.90;;;;;;10445057;28;20150;-60
2024/02/28 00:59:01;;;;;;;6.73;2.57;;;14.70;99.90;;;;;;10436379;28;20499;-61
2024/02/28 01:04:03;;;;;;;4.63;2.42;;;14.90;99.90;;;;;;10442252;28;20112;-61
2024/02/28 01:09:05;;;;;;;4.50;2.05;;;15.00;99.90;;;;;;10445947;28;20052;-61
2024/02/28 01:14:09;;;;;;;9.20;2.30;;;14.90;99.90;;;;;;10428186;28;20065;-62
2024/02/28 01:19:11;;;;;;;7.72;2.38;;;14.70;99.90;;;;;;10437487;28;21289;-59
2024/02/28 01:24:13;;;;;;;3.57;1.97;;;14.80;99.90;;;;;;10440401;28;20072;-61
2024/02/28 01:29:17;;;;;;;6.65;2.25;;;14.70;99.90;;;;;;10438840;28;20048;-61
2024/02/28 01:34:19;;;;;;;5.25;2.70;;;14.60;99.90;;;;;;10436843;28;20053;-61
2024/02/28 01:39:21;;;;;;;4.22;2.58;;;14.20;99.90;;;;;;10434076;28;20041;-60
2024/02/28 01:44:24;;;;;;;6.93;3.20;;;14.00;99.90;;;;;;10439238;28;20091;-60
2024/02/28 01:49:26;;;;;;;12.23;4.32;;;13.10;99.90;;;;;;10428976;28;20172;-59
2024/02/28 01:54:32;;;;;;;10.27;3.23;;;11.90;99.90;;;;;;10436263;28;20078;-60
2024/02/28 01:59:36;;;;;;;9.10;2.88;;;12.10;99.90;;;;;;10437921;28;20163;-61
2024/02/28 02:04:38;;;;;;;7.75;3.25;;;13.20;99.90;;;;;;10437952;28;20048;-61
2024/02/28 02:09:40;;;;;;;8.32;3.50;;;12.60;99.90;;;;;;10436650;28;20747;-61
2024/02/28 02:14:48;;;;;;;6.30;3.10;;;13.00;99.90;;;;;;10436394;28;20060;-61
2024/02/28 02:19:50;;;;;;;9.48;4.03;;;10.90;99.90;;;;;;10438800;28;20071;-60
2024/02/28 02:24:54;;;;;;;13.48;2.78;;;11.40;99.90;;;;;;10432013;28;20053;-61
2024/02/28 02:29:56;;;;;;;9.73;3.70;;;12.60;99.90;;;;;;10439301;28;20041;-60
2024/02/28 02:34:58;;;;;;;8.38;3.72;;;12.20;99.90;;;;;;10433146;28;20064;-62
2024/02/28 02:40:01;;;;;;;7.47;3.50;;;12.70;99.90;;;;;;10434713;28;20198;-61
2024/02/28 02:45:04;;;;;;;7.50;3.80;;;12.90;99.90;;;;;;10433969;28;20041;-61
2024/02/28 02:50:09;;;;;;;10.77;4.18;;;12.90;99.90;;;;;;10433352;28;20070;-60
2024/02/28 02:55:12;;;;;;;18.50;4.40;;;13.00;99.90;;;;;;10435225;28;20059;-61
2024/02/28 03:00:14;;;;;;;5.88;3.38;;;12.50;99.90;;;;;;10438396;28;20132;-61
2024/02/28 03:05:16;;;;;;;12.13;4.50;;;13.00;99.90;;;;;;10430715;28;20048;-60
2024/02/28 03:10:21;;;;;;;15.50;4.93;;;12.60;99.90;;;;;;10436764;28;20479;-61
2024/02/28 03:15:23;;;;;;;13.95;4.35;;;13.00;99.90;;;;;;10419250;28;20358;-62
2024/02/28 03:20:25;;;;;;;9.13;4.37;;;13.10;99.90;;;;;;10437928;28;20110;-61
2024/02/28 03:25:28;;;;;;;15.33;5.00;;;13.20;99.90;;;;;;10433235;28;20048;-60
2024/02/28 03:30:30;;;;;;;15.48;4.63;;;12.70;99.90;;;;;;10428807;28;20900;-61
2024/02/28 03:35:32;;;;;;;9.68;3.90;;;13.30;99.90;;;;;;10432740;28;20044;-61
2024/02/28 03:40:36;;;;;;;18.57;6.30;;;13.00;99.90;;;;;;10435188;28;20048;-60
2024/02/28 03:45:39;;;;;;;10.20;5.07;;;12.80;99.90;;;;;;10424502;28;20050;-60
2024/02/28 03:50:41;;;;;;;11.55;5.78;;;13.40;99.90;;;;;;10437084;28;20060;-60
2024/02/28 03:55:44;;;;;;;13.03;7.00;;;13.10;99.90;;;;;;10425239;28;20060;-60
2024/02/28 04:15:31;;;;;;;13.60;8.07;;;14.40;99.90;;;;;;10462065;27;2165664;-61
2024/02/28 04:20:33;;;;;;;14.70;7.55;;;13.50;99.90;;;;;;10520517;28;20071;-60
2024/02/28 04:25:35;;;;;;;10.60;6.23;;;13.50;99.90;;;;;;10523537;28;20918;-61
2024/02/28 04:30:39;;;;;;;15.57;7.30;;;13.70;99.90;;;;;;10527099;28;20470;-62
2024/02/28 04:35:41;;;;;;;16.33;8.18;;;13.20;99.90;;;;;;10521170;28;20048;-61
2024/02/28 04:40:43;;;;;;;19.63;9.05;;;13.30;99.90;;;;;;10522364;28;20207;-61
2024/02/28 04:45:46;;;;;;;16.03;8.60;;;12.80;99.90;;;;;;10521692;28;20770;-61
2024/02/28 04:50:48;;;;;;;19.90;8.90;;;13.30;99.90;;;;;;10521361;28;20850;-60
2024/02/28 04:55:51;;;;;;;14.33;7.93;;;13.30;99.90;;;;;;10524303;28;20055;-61
2024/02/28 05:00:54;;;;;;;11.32;7.25;;;14.10;99.90;;;;;;10522055;28;20142;-62
2024/02/28 05:05:56;;;;;;;15.10;7.32;;;14.60;99.90;;;;;;10522531;28;20056;-64
2024/02/28 05:10:58;;;;;;;13.27;7.80;;;14.90;99.90;;;;;;10520908;28;20091;-60
2024/02/28 05:16:02;;;;;;;16.42;8.30;;;15.10;99.90;;;;;;10522009;28;21381;-61
2024/02/28 05:21:04;;;;;;;9.95;6.68;;;15.10;99.90;;;;;;10520094;28;20065;-61
2024/02/28 05:26:06;;;;;;;16.67;8.57;;;15.10;99.90;;;;;;10487710;28;20079;-63
2024/02/28 05:31:22;;;;;;;12.30;5.10;;;15.20;99.90;;;;;;10489871;28;20044;-62
2024/02/28 05:36:25;;;;;;;17.55;7.47;;;15.30;99.90;;;;;;10486662;28;20075;-61
2024/02/28 05:41:28;;;;;;;11.90;7.40;;;15.50;99.90;;;;;;10490425;28;20495;-60
2024/02/28 05:46:32;;;;;;;11.45;7.03;;;15.60;99.90;;;;;;10485642;28;20059;-60
2024/02/28 05:51:33;;;;;;;11.50;6.00;;;15.70;99.90;;;;;;10485987;28;20051;-60
2024/02/28 05:56:35;;;;;;;12.10;7.20;;;15.70;99.90;;;;;;10489332;28;20044;-61
2024/02/28 06:01:40;;;;;;;15.93;6.90;;;15.70;99.90;;;;;;10478702;28;20044;-62
2024/02/28 06:06:42;;;;;;;15.77;6.88;;;16.00;99.90;;;;;;10477292;28;20064;-62
2024/02/28 06:11:44;;;;;;;14.68;7.75;;;16.10;99.90;;;;;;10495628;28;20059;-61
2024/02/28 06:16:49;;;;;;;19.40;8.90;;;16.00;99.90;;;;;;10491829;28;20056;-61
2024/02/28 06:21:51;;;;;;;12.68;6.97;;;14.80;99.90;;;;;;10489553;28;20528;-61
2024/02/28 06:26:53;;;;;;;17.53;6.70;;;15.20;99.90;;;;;;10487420;28;20093;-61
2024/02/28 06:31:56;;;;;;;19.63;10.00;;;15.70;99.90;;;;;;10482317;28;20044;-61
2024/02/28 06:36:58;;;;;;;13.95;7.97;;;13.40;99.90;;;;;;10486878;28;20047;-61
2024/02/28 06:42:00;;;;;;;20.20;9.20;;;13.90;99.90;;;;;;10482371;28;20044;-62
2024/02/28 06:47:04;;;;;;;21.57;9.50;;;13.70;99.90;;;;;;10484405;28;20495;-60
2024/02/28 06:52:06;;;;;;;14.68;8.10;;;13.60;99.90;;;;;;10487211;28;20090;-60
2024/02/28 06:57:08;;;;;;;14.50;7.55;;;15.10;99.90;;;;;;10492439;28;20102;-60
2024/02/28 07:02:12;;;;;;;19.73;7.43;;;15.50;99.90;;;;;;10489971;28;20842;-61
2024/02/28 07:07:14;;;;;;;15.98;7.43;;;15.80;99.90;;;;;;10484724;28;20048;-62
2024/02/28 07:12:16;;;;;;;12.80;6.03;;;16.20;99.90;;;;;;10485968;28;20120;-61
2024/02/28 07:17:19;;;;;;;17.33;9.37;;;16.30;99.90;;;;;;10480251;28;20060;-61
2024/02/28 07:22:22;;;;;;;18.20;8.82;;;15.70;99.90;;;;;;10479802;28;20725;-61
2024/02/28 07:27:24;;;;;;;19.40;8.38;;;15.90;99.90;;;;;;10480884;28;20109;-61
2024/02/28 07:32:27;;;;;;;15.40;8.85;;;16.30;99.90;;;;;;10482409;28;20055;-62
2024/02/28 07:37:29;;;;;;;17.33;8.95;;;16.20;99.90;;;;;;10481290;28;20606;-60
2024/02/28 07:42:31;;;;;;;18.98;9.15;;;16.00;99.90;;;;;;10481641;28;20067;-60
2024/02/28 07:47:38;;;;;;;19.93;9.30;;;14.70;99.90;;;;;;10477502;28;20059;-61
2024/02/28 07:52:40;;;;;;;18.60;9.50;;;15.60;99.90;;;;;;10474969;28;20554;-62
2024/02/28 07:57:42;;;;;;;27.90;10.30;;;15.70;99.90;;;;;;10477307;28;20052;-62
2024/02/28 08:02:46;;;;;;;18.90;9.98;;;15.40;99.90;;;;;;10470151;28;20944;-62
2024/02/28 08:07:48;;;;;;;13.00;5.90;;;14.00;99.90;;;;;;10478612;28;20466;-61
2024/02/28 08:12:50;;;;;;;16.67;8.80;;;15.10;99.90;;;;;;10483878;28;20063;-61
2024/02/28 08:17:53;;;;;;;17.37;7.30;;;15.30;99.90;;;;;;10480242;28;22149;-61
2024/02/28 08:22:57;;;;;;;13.15;7.15;;;15.90;99.90;;;;;;10481274;28;20040;-60
2024/02/28 08:27:59;;;;;;;14.57;6.90;;;16.10;99.90;;;;;;10485178;28;20141;-61
2024/02/28 08:33:03;;;;;;;10.60;5.63;;;15.50;99.90;;;;;;10482711;28;20053;-60
2024/02/28 08:38:12;;;;;;;17.27;8.57;;;16.10;99.90;;;;;;10481182;28;20055;-61
2024/02/28 08:43:26;;;;;;;12.43;8.02;;;15.70;99.90;;;;;;10485017;28;20503;-61
2024/02/28 08:48:41;;;;;;;17.73;7.93;;;16.00;99.90;;;;;;10480051;28;21175;-62
2024/02/28 08:53:44;;;;;;;16.77;7.05;;;16.10;99.90;;;;;;10482700;28;20147;-60
2024/02/28 08:58:46;;;;;;;15.88;8.38;;;16.20;99.90;;;;;;10476145;28;20523;-61
2024/02/28 09:03:49;;;;;;;13.48;7.03;;;16.20;99.90;;;;;;10492308;28;20124;-61
2024/02/28 09:08:51;;;;;;;11.80;6.88;;;16.10;99.90;;;;;;10491241;28;20822;-61
2024/02/28 09:13:54;;;;;;;13.87;6.07;;;16.30;99.90;;;;;;10486971;28;20083;-60
2024/02/28 09:18:57;;;;;;;12.77;7.50;;;16.60;99.90;;;;;;10486855;28;20485;-60
2024/02/28 09:23:59;;;;;;;16.35;7.65;;;16.70;99.90;;;;;;10488055;28;20040;-59
2024/02/28 09:29:01;;;;;;;13.80;7.00;;;16.70;99.90;;;;;;10488478;28;20070;-61
2024/02/28 09:34:07;;;;;;;12.80;5.22;;;16.70;99.90;;;;;;10482243;28;20047;-61
2024/02/28 09:39:10;;;;;;;12.05;6.47;;;16.80;99.90;;;;;;10488519;28;20197;-60
2024/02/28 09:44:13;;;;;;;19.65;7.65;;;16.60;99.90;;;;;;10487348;28;20047;-60
2024/02/28 09:49:17;;;;;;;18.33;7.43;;;16.70;99.90;;;;;;10487366;28;20040;-61
2024/02/28 09:54:21;;;;;;;24.85;9.48;;;16.50;99.90;;;;;;10480002;28;20052;-61
2024/02/28 09:59:25;;;;;;;22.35;8.30;;;16.40;99.90;;;;;;10488635;28;20172;-61
2024/02/28 10:04:28;;;;;;;14.13;7.18;;;16.50;99.90;;;;;;10487708;28;20230;-60
2024/02/28 10:09:30;;;;;;;15.18;8.52;;;16.70;99.90;;;;;;10488345;28;20134;-61
2024/02/28 10:14:32;;;;;;;13.60;7.60;;;16.40;99.90;;;;;;10489659;28;20044;-63
2024/02/28 10:19:36;;;;;;;19.13;8.90;;;16.40;99.90;;;;;;10484763;28;20079;-61
2024/02/28 10:24:38;;;;;;;14.60;9.35;;;16.40;99.90;;;;;;10483202;28;20049;-61
2024/02/28 10:29:44;;;;;;;19.25;8.65;;;16.40;99.90;;;;;;10485274;28;20079;-60
2024/02/28 10:34:48;;;;;;;19.50;10.55;;;15.50;99.90;;;;;;10484091;28;20052;-61
2024/02/28 10:39:55;;;;;;;19.85;11.82;;;14.90;99.90;;;;;;10492083;28;20640;-61
2024/02/28 10:44:59;;;;;;;18.80;10.00;;;14.00;99.90;;;;;;10481438;28;20903;-60
2024/02/28 10:50:02;;;;;;;18.05;11.48;;;13.90;99.90;;;;;;10480778;28;20837;-61
2024/02/28 10:55:07;;;;;;;16.63;9.10;;;15.20;99.90;;;;;;10483002;28;21007;-61
2024/02/28 11:00:12;;;;;;;17.98;10.35;;;14.50;99.90;;;;;;10481687;28;20057;-61
2024/02/28 11:05:15;;;;;;;23.27;12.10;;;15.10;99.90;;;;;;10481852;28;20052;-61
2024/02/28 11:10:17;;;;;;;31.88;15.32;;;15.70;99.90;;;;;;10485011;28;20570;-60
2024/02/28 11:15:19;;;;;;;24.00;12.32;;;15.40;99.90;;;;;;10475617;28;20040;-61
2024/02/28 11:20:23;;;;;;;28.47;13.33;;;15.50;99.90;;;;;;10488018;28;20048;-60
2024/02/28 11:25:26;;;;;;;30.23;14.60;;;14.60;99.90;;;;;;10480246;28;20048;-61
2024/02/28 11:30:28;;;;;;;40.95;20.15;;;14.50;99.90;;;;;;10476929;28;20061;-61
2024/02/28 11:35:32;;;;;;;31.17;16.23;;;13.90;99.90;;;;;;10477647;28;20045;-60
2024/02/28 11:40:34;;;;;;;24.35;12.70;;;13.70;99.90;;;;;;10479873;28;20143;-62
2024/02/28 11:45:41;;;;;;;27.87;12.00;;;15.40;99.90;;;;;;10484476;28;20083;-61
2024/02/28 11:50:45;;;;;;;19.55;10.95;;;14.70;99.90;;;;;;10483451;28;20052;-62
2024/02/28 11:55:47;;;;;;;44.53;23.95;;;14.70;99.90;;;;;;10483748;28;20044;-60
2024/02/28 12:00:50;;;;;;;34.22;18.60;;;12.50;99.90;;;;;;10473640;28;20050;-61
2024/02/28 12:05:53;;;;;;;35.22;19.98;;;11.90;99.90;;;;;;10472915;28;20045;-62
2024/02/28 12:10:55;;;;;;;37.22;18.42;;;11.80;99.90;;;;;;10475348;28;20044;-60
2024/02/28 12:15:58;;;;;;;35.08;16.25;;;11.90;99.90;;;;;;10469527;28;20052;-60
2024/02/28 12:21:01;;;;;;;34.37;16.40;;;13.60;99.90;;;;;;10479360;28;20048;-61
2024/02/28 12:26:04;;;;;;;35.28;18.80;;;13.20;99.90;;;;;;10480315;28;20403;-60
2024/02/28 12:31:08;;;;;;;35.25;18.10;;;12.70;99.90;;;;;;10477390;28;20526;-60
2024/02/28 12:36:12;;;;;;;32.05;17.92;;;13.70;99.90;;;;;;10484920;28;20051;-60
2024/02/28 12:41:15;;;;;;;28.02;15.15;;;13.50;99.90;;;;;;10485064;28;20117;-60
2024/02/28 12:46:17;;;;;;;32.65;18.23;;;13.40;99.90;;;;;;10486661;28;20048;-59
2024/02/28 12:51:38;;;;;;;30.83;19.13;;;13.30;99.90;;;;;;10482277;28;20162;-62
2024/02/28 12:56:42;;;;;;;27.42;15.13;;;12.90;99.90;;;;;;10478249;28;20048;-61
2024/02/28 13:01:47;;;;;;;28.70;16.35;;;14.50;99.90;;;;;;10482167;28;20586;-61
2024/02/28 13:06:51;;;;;;;21.00;12.70;;;13.60;99.90;;;;;;10484340;28;20044;-60
2024/02/28 13:11:53;;;;;;;14.20;8.95;;;15.10;99.90;;;;;;10483069;28;20052;-61
2024/02/28 13:16:55;;;;;;;16.40;9.90;;;15.80;99.90;;;;;;10484048;28;20480;-61
2024/02/28 13:21:59;;;;;;;16.20;10.30;;;15.80;99.90;;;;;;10486749;28;21216;-61
2024/02/28 13:27:01;;;;;;;24.95;12.43;;;14.90;99.90;;;;;;10487044;28;20156;-61
2024/02/28 13:32:03;;;;;;;23.90;17.00;;;15.10;99.90;;;;;;10487411;28;20110;-60
2024/02/28 13:37:07;;;;;;;16.98;10.07;;;12.70;99.90;;;;;;10488608;28;20044;-60
2024/02/28 13:42:10;;;;;;;18.17;11.52;;;14.70;99.90;;;;;;10487946;28;20067;-62
2024/02/28 13:47:13;;;;;;;;;;;14.90;99.90;;;;;;10490155;28;20055;-60
2024/02/28 13:52:16;;;;;;;19.38;10.60;;;16.20;99.90;;;;;;10481969;28;19928;-61
2024/02/28 13:57:19;;;;;;;18.45;11.10;;;15.80;99.90;;;;;;10482045;28;20083;-61
2024/02/28 14:02:21;;;;;;;15.60;9.47;;;16.30;99.90;;;;;;10475070;28;20051;-61
2024/02/28 14:07:25;;;;;;;17.67;10.32;;;17.10;99.90;;;;;;10484959;28;20469;-59
2024/02/28 14:12:27;;;;;;;17.17;12.73;;;16.80;99.90;;;;;;10487880;28;20105;-61
2024/02/28 14:17:29;;;;;;;22.17;12.48;;;16.80;99.90;;;;;;10479356;28;20419;-60
2024/02/28 14:22:35;;;;;;;20.23;12.23;;;17.00;99.90;;;;;;10486463;28;20146;-60
2024/02/28 14:27:37;;;;;;;15.18;10.30;;;16.70;99.90;;;;;;10485905;28;20201;-58
2024/02/28 14:32:40;;;;;;;17.00;11.47;;;16.80;99.90;;;;;;10492002;28;20052;-61
2024/02/28 14:37:44;;;;;;;14.75;8.77;;;16.60;99.90;;;;;;10492009;28;20060;-60
2024/02/28 14:42:46;;;;;;;15.90;11.60;;;17.20;99.90;;;;;;10485440;28;20083;-61
2024/02/28 14:47:48;;;;;;;16.83;9.77;;;16.30;99.90;;;;;;10485794;28;20863;-61
2024/02/28 14:52:52;;;;;;;19.20;12.40;;;15.70;99.90;;;;;;10489588;28;20592;-61
2024/02/28 14:57:54;;;;;;;19.67;13.45;;;14.50;99.90;;;;;;10465849;28;21456;-59
2024/02/28 15:02:56;;;;;;;12.03;8.37;;;13.40;99.90;;;;;;10485493;28;20063;-60
2024/02/28 15:07:59;;;;;;;14.73;8.43;;;15.30;99.90;;;;;;10486571;28;20051;-61
2024/02/28 15:13:01;;;;;;;13.35;9.18;;;15.60;99.90;;;;;;10481731;28;20059;-61
2024/02/28 15:18:04;;;;;;;11.93;9.43;;;15.50;99.90;;;;;;10481496;28;20115;-62
2024/02/28 15:23:08;;;;;;;11.23;7.28;;;15.80;99.90;;;;;;10486488;28;20048;-60
2024/02/28 15:28:10;;;;;;;14.25;9.50;;;15.10;99.90;;;;;;10491339;28;20048;-60
2024/02/28 15:33:12;;;;;;;11.80;8.77;;;15.80;99.90;;;;;;10481026;28;20453;-61
2024/02/28 15:38:15;;;;;;;15.55;10.93;;;16.10;99.90;;;;;;10488140;28;20056;-61
2024/02/28 15:43:17;;;;;;;12.32;9.38;;;15.20;99.90;;;;;;10487343;28;20232;-61
2024/02/28 15:48:20;;;;;;;13.68;9.27;;;16.20;99.90;;;;;;10487731;28;20780;-62
2024/02/28 15:53:24;;;;;;;9.97;7.20;;;15.50;99.90;;;;;;10480127;28;20048;-61
2024/02/28 15:58:26;;;;;;;17.95;8.80;;;16.30;99.90;;;;;;10490615;28;20097;-60
2024/02/28 16:03:28;;;;;;;;;;;16.10;99.90;;;;;;10487053;28;20135;-62
2024/02/28 16:08:32;;;;;;;8.43;5.75;;;16.70;99.90;;;;;;10478639;28;19944;-61
2024/02/28 16:13:34;;;;;;;9.45;4.68;;;17.20;99.90;;;;;;10482921;28;20057;-62
2024/02/28 16:18:38;;;;;;;13.90;6.23;;;16.90;99.90;;;;;;10481724;28;20044;-61
2024/02/28 16:23:42;;;;;;;7.30;5.50;;;16.60;99.90;;;;;;10485630;28;20048;-60
2024/02/28 16:28:44;;;;;;;11.20;5.90;;;16.90;99.90;;;;;;10482822;28;20063;-61
2024/02/28 16:33:46;;;;;;;6.47;4.67;;;17.10;99.90;;;;;;10482500;28;20048;-62
2024/02/28 16:38:53;;;;;;;12.25;4.78;;;16.80;99.90;;;;;;10484954;28;20485;-60
2024/02/28 16:43:57;;;;;;;6.25;3.97;;;16.50;99.90;;;;;;10478894;28;20981;-60
2024/02/28 16:48:59;;;;;;;6.97;4.65;;;16.60;99.90;;;;;;10479430;28;20052;-60
2024/02/28 16:54:03;;;;;;;6.53;4.40;;;16.10;99.90;;;;;;10483837;28;20114;-61
2024/02/28 16:59:06;;;;;;;6.82;4.20;;;15.70;99.90;;;;;;10481188;28;20048;-61
2024/02/28 17:04:08;;;;;;;;;;;16.20;99.90;;;;;;10476185;28;20163;-61
2024/02/28 17:09:11;;;;;;;5.18;3.53;;;16.80;99.90;;;;;;10484567;28;20035;-60
2024/02/28 17:14:13;;;;;;;8.82;4.80;;;16.50;99.90;;;;;;10484912;28;20087;-62
2024/02/28 17:19:16;;;;;;;13.10;5.50;;;15.20;99.90;;;;;;10482548;28;20051;-61
2024/02/28 17:24:19;;;;;;;10.13;4.88;;;13.30;99.90;;;;;;10492729;28;20485;-61
2024/02/28 17:29:21;;;;;;;12.57;6.20;;;13.50;99.90;;;;;;10486251;28;21181;-60
2024/02/28 17:34:23;;;;;;;9.23;5.43;;;13.00;99.90;;;;;;10484478;28;20104;-60
2024/02/28 17:39:27;;;;;;;10.03;6.57;;;13.30;99.90;;;;;;10484780;28;20526;-60
2024/02/28 17:44:29;;;;;;;11.85;7.82;;;12.70;99.90;;;;;;10486091;28;20068;-61
2024/02/28 17:49:31;;;;;;;12.48;6.15;;;11.90;99.90;;;;;;10482654;28;20699;-60
2024/02/28 17:54:34;;;;;;;8.60;5.20;;;12.20;99.90;;;;;;10481911;28;20072;-61
2024/02/28 17:59:36;;;;;;;10.25;6.32;;;14.20;99.90;;;;;;10483748;28;20051;-62
2024/02/28 18:04:38;;;;;;;11.88;5.93;;;14.80;99.90;;;;;;10482613;28;20217;-61
2024/02/28 18:09:42;;;;;;;8.63;5.95;;;15.20;99.90;;;;;;10484407;28;20064;-59
2024/02/28 18:14:44;;;;;;;11.95;6.22;;;14.40;99.90;;;;;;10484858;28;20052;-60
2024/02/28 18:19:46;;;;;;;17.87;5.43;;;14.40;99.90;;;;;;10477128;28;20083;-57
2024/02/28 18:24:49;;;;;;;8.90;6.93;;;13.60;99.90;;;;;;10476472;28;20050;-58
2024/02/28 18:29:51;;;;;;;11.70;7.07;;;12.90;99.90;;;;;;10475386;28;20525;-60
2024/02/28 18:34:55;;;;;;;10.05;6.22;;;13.10;99.90;;;;;;10480386;28;20080;-59
2024/02/28 18:39:58;;;;;;;10.80;6.07;;;13.20;99.90;;;;;;10484421;28;20923;-59
2024/02/28 18:45:04;;;;;;;11.52;6.70;;;12.90;99.90;;;;;;10477392;28;20076;-58
2024/02/28 18:50:07;;;;;;;11.23;6.50;;;12.70;99.90;;;;;;10482685;28;20043;-59
2024/02/28 18:55:10;;;;;;;15.85;6.72;;;13.50;99.90;;;;;;10482304;28;20064;-59
2024/02/28 19:00:13;;;;;;;9.82;5.85;;;12.70;99.90;;;;;;10482038;28;20614;-59
2024/02/28 19:05:15;;;;;;;13.13;7.13;;;12.30;99.90;;;;;;10478590;28;20135;-60
2024/02/28 19:10:19;;;;;;;7.47;4.63;;;11.90;99.90;;;;;;10479444;28;20052;-58
2024/02/28 19:15:21;;;;;;;7.80;5.68;;;14.40;99.90;;;;;;10473325;28;20051;-60
2024/02/28 19:20:23;;;;;;;10.45;6.65;;;13.10;99.90;;;;;;10475094;28;20071;-59
2024/02/28 19:25:26;;;;;;;9.37;6.70;;;13.20;99.90;;;;;;10472567;28;20052;-58
2024/02/28 19:30:28;;;;;;;13.88;7.40;;;12.40;99.90;;;;;;10481554;28;20055;-61
2024/02/28 19:35:30;;;;;;;9.50;5.60;;;12.10;99.90;;;;;;10475514;28;20044;-58
2024/02/28 19:40:34;;;;;;;8.17;4.13;;;12.70;99.90;;;;;;10479232;28;20338;-59
2024/02/28 19:45:36;;;;;;;9.38;6.55;;;12.80;99.90;;;;;;10482061;28;20047;-60
2024/02/28 19:50:38;;;;;;;11.60;7.10;;;14.10;99.90;;;;;;10472824;28;20252;-60
2024/02/28 19:55:42;;;;;;;14.55;5.80;;;15.00;99.90;;;;;;10478162;28;20201;-60
2024/02/28 20:00:44;;;;;;;10.05;7.00;;;15.60;99.90;;;;;;10474510;28;20082;-58
2024/02/28 20:05:46;;;;;;;9.47;5.80;;;15.50;99.90;;;;;;10473731;28;20258;-60
2024/02/28 20:10:50;;;;;;;;;;;15.20;99.90;;;;;;10477799;28;20085;-57
2024/02/28 20:15:53;;;;;;;;;;;15.80;99.90;;;;;;10477055;28;20737;-61
2024/02/28 20:20:55;;;;;;;8.20;6.35;;;16.10;99.90;;;;;;10472679;28;19924;-57
2024/02/28 20:25:59;;;;;;;10.32;6.15;;;15.40;99.90;;;;;;10480525;28;20082;-58
2024/02/28 20:31:01;;;;;;;9.25;5.90;;;15.30;99.90;;;;;;10482276;28;20055;-58
2024/02/28 20:36:03;;;;;;;13.20;6.18;;;15.20;99.90;;;;;;10481060;28;20083;-60
2024/02/28 20:41:08;;;;;;;9.82;5.60;;;15.90;99.90;;;;;;10480602;28;21320;-57
2024/02/28 20:46:10;;;;;;;9.07;5.70;;;15.30;99.90;;;;;;10480869;28;20083;-55
2024/02/28 20:51:12;;;;;;;8.77;5.05;;;15.20;99.90;;;;;;10473684;28;21038;-59
2024/02/28 20:56:16;;;;;;;6.37;4.40;;;15.90;99.90;;;;;;10482276;28;20045;-60
2024/02/28 21:01:28;;;;;;;7.88;5.10;;;15.50;99.90;;;;;;10489179;28;20055;-57
2024/02/28 21:06:35;;;;;;;7.28;4.55;;;15.70;99.90;;;;;;10495759;28;20048;-57
2024/02/28 21:11:38;;;;;;;9.68;5.43;;;15.70;99.90;;;;;;10491766;28;20052;-59
2024/02/28 21:16:40;;;;;;;7.93;5.18;;;15.60;99.90;;;;;;10490992;28;20495;-57
2024/02/28 21:21:42;;;;;;;9.85;5.93;;;14.40;99.90;;;;;;10489752;28;20056;-58
2024/02/28 21:26:46;;;;;;;7.60;5.07;;;14.40;99.90;;;;;;10489905;28;20949;-57
2024/02/28 21:31:48;;;;;;;9.98;6.40;;;14.90;99.90;;;;;;10492892;28;20596;-60
2024/02/28 21:36:50;;;;;;;10.30;5.60;;;14.50;99.90;;;;;;10493090;28;20047;-59
2024/02/28 21:41:53;;;;;;;9.50;4.10;;;14.80;99.90;;;;;;10492318;28;20075;-57
2024/02/28 21:46:55;;;;;;;9.93;5.75;;;15.40;99.90;;;;;;10495296;28;20048;-56
2024/02/28 21:51:57;;;;;;;13.85;5.53;;;15.20;99.90;;;;;;10484005;28;20500;-58
2024/02/28 21:57:03;;;;;;;7.37;4.57;;;15.90;99.90;;;;;;10492009;28;20054;-60
2024/02/28 22:02:05;;;;;;;7.78;5.30;;;15.90;99.90;;;;;;10495750;28;21084;-60
2024/02/28 22:07:07;;;;;;;7.65;5.30;;;15.70;99.90;;;;;;10494783;28;20044;-57
2024/02/28 22:12:11;;;;;;;12.00;6.00;;;15.20;99.90;;;;;;10489761;28;20067;-59
2024/02/28 22:17:15;;;;;;;6.90;5.97;;;14.90;99.90;;;;;;10491006;28;20489;-58
2024/02/28 22:22:17;;;;;;;8.27;6.32;;;14.80;99.90;;;;;;10492777;28;20063;-58
2024/02/28 22:27:20;;;;;;;9.30;5.10;;;14.80;99.90;;;;;;10489117;28;20055;-59
2024/02/28 22:32:22;;;;;;;14.27;6.55;;;15.00;99.90;;;;;;10491143;28;20411;-59
2024/02/28 22:37:24;;;;;;;14.43;6.90;;;15.60;99.90;;;;;;10492498;28;20048;-60
2024/02/28 22:42:27;;;;;;;9.87;4.93;;;15.00;99.90;;;;;;10496344;28;20059;-57
2024/02/28 22:47:29;;;;;;;8.35;4.72;;;15.70;99.90;;;;;;10489676;28;20050;-59
2024/02/28 22:52:31;;;;;;;11.50;5.33;;;15.60;99.90;;;;;;10489034;28;20817;-60
2024/02/28 22:57:37;;;;;;;7.87;5.77;;;15.90;99.90;;;;;;10485563;28;20067;-59
2024/02/28 23:02:39;;;;;;;10.38;5.95;;;16.60;99.90;;;;;;10487644;28;20102;-59
2024/02/28 23:07:41;;;;;;;9.23;6.33;;;16.20;99.90;;;;;;10486898;28;20043;-59
2024/02/28 23:12:44;;;;;;;12.20;8.27;;;14.90;99.90;;;;;;10488589;28;20060;-59
2024/02/28 23:17:46;;;;;;;11.70;6.55;;;14.70;99.90;;;;;;10488770;28;20524;-59
2024/02/28 23:22:48;;;;;;;20.45;7.93;;;15.00;99.90;;;;;;10486789;28;20063;-56
2024/02/28 23:27:54;;;;;;;11.23;5.83;;;15.30;99.90;;;;;;10486763;28;20133;-59
2024/02/28 23:32:57;;;;;;;11.55;6.70;;;16.00;99.90;;;;;;10487404;28;20498;-59
2024/02/28 23:37:59;;;;;;;15.95;8.02;;;16.10;99.90;;;;;;10490047;28;20056;-60
2024/02/28 23:43:02;;;;;;;11.50;7.50;;;16.00;99.90;;;;;;10485419;28;20049;-57
2024/02/28 23:48:05;;;;;;;14.18;7.82;;;16.00;99.90;;;;;;10490822;28;20585;-58
2024/02/28 23:53:10;;;;;;;10.98;8.07;;;16.00;99.90;;;;;;10488385;28;20062;-59
2024/02/28 23:58:14;;;;;;;9.93;7.20;;;15.90;99.90;;;;;;10483909;28;20049;-59
